Time;durP1;ratioP1;P1;durP2;ratioP2;P2;SDS_P1;SDS_P2;PMS_P1;PMS_P2;Temp;Humidity;BMP_temperature;BMP_pressure;BME280_temperature;BME280_humidity;BME280_pressure;Samples;Min_cycle;Max_cycle;Signal;HPM_P1;HPM_P2
2021/11/02 00:00:36;;;;;;;0.40;0.30;;;;;;;11.31;100.00;99680.91;5076483;28;20437;-74
2021/11/02 00:03:03;;;;;;;0.40;0.30;;;;;;;11.34;100.00;99677.53;5076280;28;20460;-74
2021/11/02 00:05:30;;;;;;;0.50;0.43;;;;;;;11.34;100.00;99669.41;5076321;28;20445;-74
2021/11/02 00:07:56;;;;;;;0.40;0.30;;;;;;;11.30;100.00;99659.56;5075978;28;20457;-74
2021/11/02 00:10:23;;;;;;;0.40;0.30;;;;;;;11.30;100.00;99657.63;5076211;28;20489;-74
2021/11/02 00:12:51;;;;;;;0.40;0.30;;;;;;;11.32;100.00;99660.78;5076177;28;20465;-74
2021/11/02 00:15:21;;;;;;;0.40;0.30;;;;;;;11.37;100.00;99647.03;5076187;28;20444;-74
2021/11/02 00:17:49;;;;;;;0.40;0.30;;;;;;;11.35;100.00;99643.88;5076026;28;20487;-74
2021/11/02 00:20:16;;;;;;;0.40;0.27;;;;;;;11.33;100.00;99646.13;5076073;28;20433;-74
2021/11/02 00:22:52;;;;;;;0.40;0.30;;;;;;;11.31;99.63;99642.94;5075975;28;20518;-74
2021/11/02 00:25:19;;;;;;;0.40;0.30;;;;;;;11.25;99.04;99646.97;5076090;28;20473;-74
2021/11/02 00:27:45;;;;;;;0.40;0.30;;;;;;;11.23;99.52;99638.38;5075981;28;20445;-74
2021/11/02 00:30:15;;;;;;;0.40;0.30;;;;;;;11.24;99.86;99637.22;5075885;28;20484;-74
2021/11/02 00:32:43;;;;;;;0.40;0.30;;;;;;;11.24;99.83;99633.75;5075496;28;20830;-74
2021/11/02 00:35:11;;;;;;;0.40;0.30;;;;;;;11.16;99.12;99640.81;5075861;28;20438;-74
2021/11/02 00:37:39;;;;;;;0.40;0.30;;;;;;;11.14;99.73;99640.34;5075418;28;20926;-74
2021/11/02 00:40:08;;;;;;;0.40;0.30;;;;;;;11.23;100.00;99643.78;5075246;28;20825;-74
2021/11/02 00:42:38;;;;;;;0.40;0.30;;;;;;;11.23;100.00;99645.72;5075354;28;20453;-74
2021/11/02 00:45:06;;;;;;;0.60;0.30;;;;;;;11.23;100.00;99648.41;5075630;28;20437;-74
2021/11/02 00:47:34;;;;;;;0.40;0.30;;;;;;;11.23;100.00;99632.94;5075743;28;20476;-75
2021/11/02 00:50:01;;;;;;;0.40;0.30;;;;;;;11.24;100.00;99636.44;5075655;28;20492;-75
2021/11/02 00:52:29;;;;;;;0.40;0.27;;;;;;;11.28;100.00;99635.47;5075504;28;20472;-72
2021/11/02 00:54:56;;;;;;;0.40;0.30;;;;;;;11.28;100.00;99627.31;5075432;28;20491;-72
2021/11/02 00:57:23;;;;;;;0.40;0.30;;;;;;;11.25;100.00;99640.75;5075466;28;20446;-72
2021/11/02 00:59:50;;;;;;;0.40;0.30;;;;;;;11.25;100.00;99636.13;5075447;28;20528;-72
2021/11/02 01:02:18;;;;;;;0.40;0.20;;;;;;;11.25;100.00;99628.00;5075363;28;20441;-72
2021/11/02 01:04:47;;;;;;;0.40;0.30;;;;;;;11.29;100.00;99630.84;5075349;28;20473;-72
2021/11/02 01:07:14;;;;;;;0.40;0.20;;;;;;;11.30;100.00;99625.09;5075097;28;20444;-72
2021/11/02 01:09:41;;;;;;;0.40;0.30;;;;;;;11.28;100.00;99627.31;5075171;28;20469;-72
2021/11/02 01:12:08;;;;;;;1.27;1.23;;;;;;;11.27;100.00;99617.63;5075054;28;20869;-72
2021/11/02 01:14:35;;;;;;;0.40;0.30;;;;;;;11.26;100.00;99613.31;5075150;28;20437;-72
2021/11/02 01:17:02;;;;;;;0.40;0.30;;;;;;;11.25;100.00;99613.66;5074970;28;20448;-72
2021/11/02 01:19:29;;;;;;;0.40;0.30;;;;;;;11.26;100.00;99615.25;5074505;28;20816;-72
2021/11/02 01:21:56;;;;;;;0.40;0.30;;;;;;;11.25;98.97;99611.75;5074949;28;20472;-72
2021/11/02 01:24:23;;;;;;;0.40;0.30;;;;;;;11.16;97.85;99605.59;5074628;28;20448;-72
2021/11/02 01:26:49;;;;;;;0.40;0.30;;;;;;;11.15;98.50;99605.91;5074796;28;20468;-72
2021/11/02 01:29:16;;;;;;;0.40;0.30;;;;;;;11.12;98.42;99610.06;5074689;28;20445;-72
2021/11/02 01:31:43;;;;;;;0.40;0.30;;;;;;;11.13;98.55;99608.94;5074795;28;20452;-72
2021/11/02 01:34:09;;;;;;;0.40;0.30;;;;;;;11.12;99.50;99604.66;5074711;28;20457;-72
2021/11/02 01:36:36;;;;;;;0.40;0.30;;;;;;;11.12;100.00;99601.94;5074647;28;20445;-72
2021/11/02 01:39:06;;;;;;;0.40;0.30;;;;;;;11.16;100.00;99599.38;5074580;28;20448;-72
2021/11/02 01:41:33;;;;;;;0.40;0.30;;;;;;;11.19;100.00;99598.69;5074525;28;20445;-72
2021/11/02 01:43:59;;;;;;;0.40;0.30;;;;;;;11.23;100.00;99602.34;5074429;28;20468;-72
2021/11/02 01:46:28;;;;;;;0.40;0.30;;;;;;;11.23;100.00;99595.00;5074119;28;20996;-72
2021/11/02 01:48:57;;;;;;;0.40;0.30;;;;;;;11.25;100.00;99592.75;5074372;28;20464;-72
2021/11/02 01:51:26;;;;;;;0.40;0.30;;;;;;;11.23;100.00;99602.34;5073746;28;21024;-72
2021/11/02 01:53:53;;;;;;;0.40;0.30;;;;;;;11.22;100.00;99593.41;5073741;28;20453;-72
2021/11/02 01:56:21;;;;;;;0.40;0.27;;;;;;;11.22;100.00;99592.63;5074243;28;20441;-73
2021/11/02 01:58:51;;;;;;;0.40;0.30;;;;;;;11.22;100.00;99593.41;5074202;28;20441;-73
2021/11/02 02:01:28;;;;;;;0.40;0.30;;;;;;;11.20;100.00;99589.44;5074355;28;20434;-73
2021/11/02 02:04:06;;;;;;;1.53;1.43;;;;;;;11.21;100.00;99582.91;5074073;28;20461;-73
2021/11/02 02:06:42;;;;;;;0.40;0.30;;;;;;;11.20;100.00;99575.88;5073815;28;20907;-72
2021/11/02 02:09:16;;;;;;;0.40;0.30;;;;;;;11.18;100.00;99575.44;5073748;28;20460;-72
2021/11/02 02:11:53;;;;;;;0.40;0.30;;;;;;;11.18;100.00;99581.63;5073971;28;20429;-72
2021/11/02 02:14:27;;;;;;;0.40;0.30;;;;;;;11.12;100.00;99577.53;5073829;28;20464;-72
2021/11/02 02:16:56;;;;;;;0.40;0.30;;;;;;;11.08;100.00;99579.31;5073843;28;20467;-73
2021/11/02 02:19:36;;;;;;;0.40;0.20;;;;;;;11.07;100.00;99578.53;5073725;28;20438;-72
2021/11/02 02:22:11;;;;;;;0.40;0.30;;;;;;;11.07;99.27;99585.88;5073683;28;20434;-72
2021/11/02 02:24:58;;;;;;;2.30;1.23;;;;;;;11.02;99.45;99577.91;5073736;28;20429;-72
2021/11/02 02:27:34;;;;;;;0.40;0.30;;;;;;;10.94;98.16;99576.88;5073726;28;20436;-72
2021/11/02 02:30:08;;;;;;;0.40;0.30;;;;;;;10.94;99.11;99579.56;5073624;28;20537;-72
2021/11/02 02:32:40;;;;;;;0.40;0.30;;;;;;;10.96;99.85;99577.31;5073532;28;20487;-73
2021/11/02 02:35:11;;;;;;;0.40;0.30;;;;;;;10.96;100.00;99573.81;5073582;28;20429;-72
2021/11/02 02:37:40;;;;;;;0.40;0.30;;;;;;;11.01;100.00;99577.13;5073185;28;20432;-72
2021/11/02 02:40:08;;;;;;;0.40;0.30;;;;;;;10.98;100.00;99571.56;5073474;28;20441;-72
2021/11/02 02:42:37;;;;;;;0.40;0.30;;;;;;;11.01;100.00;99582.53;5071425;28;20462;-72
2021/11/02 02:45:07;;;;;;;0.40;0.30;;;;;;;11.02;100.00;99583.34;5053037;28;20959;-73
2021/11/02 02:47:35;;;;;;;0.50;0.43;;;;;;;11.05;100.00;99577.25;5053668;28;20843;-73
2021/11/02 02:50:04;;;;;;;0.40;0.30;;;;;;;11.06;100.00;99573.44;5052970;28;20481;-73
2021/11/02 02:52:32;;;;;;;0.60;0.60;;;;;;;11.05;100.00;99577.25;5053261;28;20457;-73
2021/11/02 02:55:00;;;;;;;0.40;0.30;;;;;;;11.03;100.00;99569.47;5053269;28;20454;-73
2021/11/02 02:57:28;;;;;;;0.40;0.30;;;;;;;11.03;100.00;99577.59;5053255;28;20450;-73
2021/11/02 02:59:56;;;;;;;0.50;0.50;;;;;;;11.04;100.00;99578.41;5053157;28;20449;-72
2021/11/02 03:02:27;;;;;;;0.40;0.27;;;;;;;11.05;100.00;99577.25;5053142;28;20469;-72
2021/11/02 03:04:56;;;;;;;0.40;0.30;;;;;;;11.05;100.00;99580.75;5053023;28;20434;-73
2021/11/02 03:07:23;;;;;;;0.40;0.30;;;;;;;11.03;100.00;99576.81;5052923;28;20465;-73
2021/11/02 03:09:50;;;;;;;0.40;0.30;;;;;;;11.00;100.00;99577.47;5053016;28;20540;-73
2021/11/02 03:12:21;;;;;;;0.40;0.30;;;;;;;10.99;100.00;99584.00;5052999;28;20449;-73
2021/11/02 03:15:03;;;;;;;0.40;0.30;;;;;;;10.99;100.00;99586.72;5053087;28;20423;-73
2021/11/02 03:17:36;;;;;;;0.40;0.30;;;;;;;10.92;100.00;99589.94;5063407;28;20457;-72
2021/11/02 03:47:58;;;;;;;0.40;0.30;;;;;;;10.89;100.00;99565.41;5072587;28;20816;-73
2021/11/02 03:48:18;;;;;;;0.40;0.30;;;;;;;10.86;100.00;99558.75;5072296;28;20468;-73
2021/11/02 03:56:24;;;;;;;0.40;0.30;;;;;;;10.91;100.00;99555.03;5072568;28;20483;-74
2021/11/02 03:59:10;;;;;;;0.40;0.30;;;;;;;10.97;100.00;99542.88;5072746;28;20801;-73
2021/11/02 04:01:52;;;;;;;0.40;0.30;;;;;;;10.97;100.00;99545.59;5072737;28;20772;-74
2021/11/02 04:24:24;;;;;;;0.40;0.30;;;;;;;10.80;100.00;99551.91;5075761;28;20467;-72
2021/11/02 05:09:05;;;;;;;0.40;0.30;;;;;;;11.02;100.00;99550.81;5074916;28;20495;-72
2021/11/02 05:12:10;;;;;;;0.40;0.30;;;;;;;10.99;100.00;99546.88;5075070;28;20480;-75
2021/11/02 05:20:49;;;;;;;0.50;0.50;;;;;;;10.82;99.49;99550.47;5074870;28;20401;-74
2021/11/02 05:48:08;;;;;;;0.40;0.30;;;;;;;10.89;100.00;99527.47;5073988;28;20404;-71
2021/11/02 05:50:57;;;;;;;0.40;0.30;;;;;;;10.89;100.00;99532.91;5074059;28;21008;-72
2021/11/02 05:53:36;;;;;;;0.40;0.27;;;;;;;10.88;100.00;99523.97;5074054;28;21113;-73
2021/11/02 05:56:19;;;;;;;0.40;0.27;;;;;;;10.83;100.00;99521.47;5074262;28;20436;-72
2021/11/02 05:58:49;;;;;;;0.40;0.30;;;;;;;10.79;100.00;99525.94;5074214;28;20433;-72
2021/11/02 06:01:26;;;;;;;0.40;0.30;;;;;;;10.76;100.00;99527.41;5074169;28;20426;-72
2021/11/02 06:03:59;;;;;;;0.40;0.30;;;;;;;10.78;100.00;99529.78;5073789;28;20465;-72
2021/11/02 06:06:39;;;;;;;0.40;0.27;;;;;;;10.79;100.00;99537.56;5073723;28;20446;-72
2021/11/02 06:09:16;;;;;;;0.40;0.30;;;;;;;10.79;100.00;99536.78;5073368;28;20469;-73
2021/11/02 06:28:31;;;;;;;0.40;0.20;;;;;;;10.79;100.00;99544.91;5073550;28;20774;-73
2021/11/02 06:31:02;;;;;;;0.40;0.30;;;;;;;10.76;100.00;99542.88;5073176;28;20481;-72
2021/11/02 06:33:40;;;;;;;0.40;0.30;;;;;;;10.75;100.00;99538.56;5063224;28;20500;-71
2021/11/02 06:36:17;;;;;;;0.40;0.20;;;;;;;10.78;100.00;99530.56;5053560;28;20450;-72
2021/11/02 06:44:36;;;;;;;0.97;0.87;;;;;;;10.85;100.00;99543.63;5053104;28;20820;-71
2021/11/02 06:50:26;;;;;;;0.40;0.30;;;;;;;10.86;100.00;99537.88;5053379;28;20482;-72
2021/11/02 06:53:11;;;;;;;0.40;0.20;;;;;;;10.90;100.00;99534.50;5052932;28;20469;-72
2021/11/02 06:56:14;;;;;;;0.40;0.30;;;;;;;10.90;100.00;99535.28;5053309;28;20442;-72
2021/11/02 07:15:47;;;;;;;0.40;0.20;;;;;;;10.88;100.00;99534.03;5052943;28;20457;-72
2021/11/02 07:18:16;;;;;;;0.40;0.30;;;;;;;10.89;100.00;99535.59;5053124;28;20521;-72
2021/11/02 07:20:48;;;;;;;0.77;0.77;;;;;;;10.93;100.00;99531.13;5053040;28;20856;-72
2021/11/02 07:23:37;;;;;;;0.40;0.30;;;;;;;10.96;100.00;99539.38;5053033;28;20506;-71
2021/11/02 07:26:15;;;;;;;0.40;0.30;;;;;;;11.04;100.00;99537.75;5053029;28;20484;-72
2021/11/02 08:47:02;;;;;;;0.40;0.30;;;;;;;10.85;100.00;99538.19;5055454;28;20414;-71
2021/11/02 08:49:30;;;;;;;0.40;0.20;;;;;;;10.95;100.00;99550.56;5054374;28;20830;-71
2021/11/02 08:52:02;;;;;;;0.40;0.30;;;;;;;10.98;100.00;99547.19;5055104;28;20991;-71
2021/11/02 08:54:29;;;;;;;0.40;0.27;;;;;;;10.95;100.00;99548.66;5060738;28;20465;-72
2021/11/02 08:56:56;;;;;;;2.40;2.30;;;;;;;10.94;100.00;99546.28;5075369;28;20456;-72
2021/11/02 08:59:23;;;;;;;0.50;0.30;;;;;;;10.99;100.00;99540.66;5075323;28;20444;-71
2021/11/02 09:01:57;;;;;;;0.40;0.30;;;;;;;11.02;100.00;99545.41;5074705;28;20445;-72
2021/11/02 09:04:29;;;;;;;0.40;0.30;;;;;;;11.06;100.00;99543.63;5074927;28;20461;-72
2021/11/02 09:07:01;;;;;;;0.40;0.30;;;;;;;11.02;100.00;99538.09;5075262;28;20464;-72
2021/11/02 09:09:32;;;;;;;0.93;0.93;;;;;;;11.14;100.00;99537.34;5075198;28;20438;-72
2021/11/02 09:12:01;;;;;;;1.03;1.00;;;;;;;11.27;100.00;99535.50;5074767;28;20819;-72
2021/11/02 09:14:31;;;;;;;0.40;0.30;;;;;;;11.32;100.00;99541.50;5074704;28;20536;-72
2021/11/02 09:16:59;;;;;;;0.40;0.30;;;;;;;11.36;98.98;99547.06;5075075;28;20445;-72
2021/11/02 09:19:28;;;;;;;0.40;0.30;;;;;;;11.35;98.78;99538.13;5074723;28;20957;-72
2021/11/02 09:21:57;;;;;;;0.40;0.30;;;;;;;11.37;98.55;99540.50;5075016;28;20854;-72
2021/11/02 09:24:24;;;;;;;0.40;0.30;;;;;;;11.43;98.63;99541.13;5074876;28;20464;-72
2021/11/02 09:26:51;;;;;;;0.40;0.30;;;;;;;11.44;98.40;99543.50;5074915;28;20445;-71
2021/11/02 09:29:20;;;;;;;0.40;0.30;;;;;;;11.57;97.91;99533.50;5074780;28;20536;-72
2021/11/02 09:31:47;;;;;;;0.40;0.30;;;;;;;11.49;97.57;99534.34;5074421;28;21086;-72
2021/11/02 09:34:14;;;;;;;0.40;0.27;;;;;;;11.60;96.48;99533.63;5074657;28;20488;-71
2021/11/02 09:36:45;;;;;;;0.40;0.30;;;;;;;11.66;96.15;99531.50;5074662;28;20446;-72
2021/11/02 09:39:14;;;;;;;0.40;0.30;;;;;;;11.55;95.88;99531.13;5074407;28;20464;-72
2021/11/02 09:42:26;;;;;;;0.40;0.30;;;;;;;11.51;94.93;99534.81;5074231;28;20441;-72
2021/11/02 09:45:45;;;;;;;0.53;0.53;;;;;;;11.54;95.44;99524.09;5038079;28;20452;-72
2021/11/02 09:48:49;;;;;;;0.40;0.30;;;;;;;11.70;95.64;99537.84;5074503;28;20426;-72
2021/11/02 09:52:06;;;;;;;0.40;0.30;;;;;;;11.82;94.84;99531.63;5074287;28;20477;-71
2021/11/02 09:55:11;;;;;;;0.40;0.30;;;;;;;11.91;94.30;99528.84;5061317;28;20449;-72
2021/11/02 09:58:13;;;;;;;0.40;0.30;;;;;;;11.89;93.58;99528.41;5074253;28;20444;-72
2021/11/02 10:00:53;;;;;;;0.40;0.30;;;;;;;11.91;93.90;99532.38;5074206;28;20504;-71
2021/11/02 10:03:46;;;;;;;0.40;0.30;;;;;;;12.00;93.89;99530.38;5073704;28;20539;-72
2021/11/02 10:06:32;;;;;;;0.40;0.40;;;;;;;12.11;94.12;99536.16;5072455;28;20457;-72
2021/11/02 10:09:05;;;;;;;0.40;0.30;;;;;;;12.16;93.25;99543.28;5073494;28;20449;-72
2021/11/02 10:11:38;;;;;;;1.03;1.03;;;;;;;12.00;92.53;99540.44;5073903;28;20842;-72
2021/11/02 10:14:32;;;;;;;0.40;0.20;;;;;;;12.01;91.82;99555.59;5072926;28;20511;-72
2021/11/02 10:17:14;;;;;;;0.40;0.30;;;;;;;12.04;91.46;99550.28;5072235;28;20446;-72
2021/11/02 10:20:06;;;;;;;0.50;0.40;;;;;;;12.16;92.00;99544.06;5073498;28;20428;-72
2021/11/02 10:22:57;;;;;;;0.40;0.30;;;;;;;12.18;92.41;99544.53;5073769;28;20466;-72
2021/11/02 10:25:48;;;;;;;0.40;0.30;;;;;;;12.23;92.85;99544.31;5073698;28;20999;-71
2021/11/02 10:28:58;;;;;;;0.40;0.30;;;;;;;12.27;92.39;99541.72;5073710;28;20448;-72
2021/11/02 10:31:34;;;;;;;0.40;0.27;;;;;;;12.25;92.01;99538.53;5073534;28;20461;-72
2021/11/02 10:34:09;;;;;;;0.40;0.30;;;;;;;12.33;92.16;99546.59;5073546;28;20496;-72
2021/11/02 10:36:45;;;;;;;0.40;0.20;;;;;;;12.37;91.50;99541.28;5073540;28;20823;-72
2021/11/02 10:39:27;;;;;;;0.40;0.30;;;;;;;12.40;90.54;99547.97;5073600;28;20425;-72
2021/11/02 10:42:08;;;;;;;1.23;1.13;;;;;;;12.36;90.21;99553.28;5073521;28;20765;-72
2021/11/02 10:44:45;;;;;;;0.40;0.30;;;;;;;12.32;90.96;99550.44;5054676;28;20533;-72
2021/11/02 10:47:19;;;;;;;0.40;0.30;;;;;;;12.40;91.13;99542.53;5053436;28;20437;-72
2021/11/02 10:50:04;;;;;;;0.40;0.20;;;;;;;12.53;90.55;99547.63;5053041;28;20426;-72
2021/11/02 10:52:32;;;;;;;0.40;0.20;;;;;;;12.47;89.52;99540.03;5052892;28;20514;-70
2021/11/02 10:55:08;;;;;;;0.40;0.30;;;;;;;12.50;89.56;99532.00;5053262;28;20480;-74
2021/11/02 10:57:55;;;;;;;0.40;0.30;;;;;;;12.52;89.78;99537.09;5053280;28;20433;-72
2021/11/02 11:00:22;;;;;;;0.40;0.30;;;;;;;12.52;89.26;99528.94;5053254;28;20435;-72
2021/11/02 11:02:55;;;;;;;0.40;0.30;;;;;;;12.66;89.51;99531.31;5053250;28;20462;-71
2021/11/02 11:05:26;;;;;;;0.40;0.20;;;;;;;12.77;89.43;99529.72;5052910;28;20430;-72
2021/11/02 11:07:54;;;;;;;0.40;0.30;;;;;;;12.85;88.98;99537.75;5052983;28;20458;-72
2021/11/02 11:10:24;;;;;;;0.40;0.23;;;;;;;12.93;88.40;99538.78;5061605;28;20493;-72
2021/11/02 11:12:55;;;;;;;0.40;0.23;;;;;;;12.99;87.54;99531.16;5073010;28;20497;-72
2021/11/02 11:15:22;;;;;;;0.40;0.30;;;;;;;13.00;87.68;99530.81;5073261;28;20418;-72
2021/11/02 11:17:53;;;;;;;0.40;0.27;;;;;;;13.04;88.09;99528.19;5073107;28;20456;-72
2021/11/02 11:20:21;;;;;;;0.40;0.30;;;;;;;13.13;88.44;99520.69;5072786;28;20425;-72
2021/11/02 11:22:51;;;;;;;0.40;0.30;;;;;;;13.14;87.34;99527.72;5072826;28;20565;-72
2021/11/02 11:25:21;;;;;;;0.40;0.30;;;;;;;13.08;87.17;99529.09;5075406;28;20445;-73
2021/11/02 11:27:55;;;;;;;0.40;0.20;;;;;;;13.14;87.32;99525.78;5077277;28;20432;-72
2021/11/02 11:30:22;;;;;;;0.40;0.30;;;;;;;13.14;87.74;99525.78;5077159;28;20436;-72
2021/11/02 11:32:51;;;;;;;0.40;0.27;;;;;;;13.17;86.72;99527.03;5076849;28;20554;-72
2021/11/02 11:35:18;;;;;;;0.40;0.27;;;;;;;13.15;86.58;99529.31;5077016;28;20467;-72
2021/11/02 11:37:46;;;;;;;0.40;0.30;;;;;;;13.13;86.40;99526.94;5076917;28;20444;-72
2021/11/02 11:40:14;;;;;;;0.40;0.30;;;;;;;13.21;86.59;99521.72;5076869;28;20452;-72
2021/11/02 11:42:41;;;;;;;0.40;0.30;;;;;;;13.24;86.10;99518.34;5076927;28;20460;-72
2021/11/02 11:45:11;;;;;;;0.50;0.30;;;;;;;13.24;85.14;99518.34;5076576;28;20817;-72
2021/11/02 11:47:38;;;;;;;0.40;0.30;;;;;;;13.19;85.18;99518.53;5076498;28;20959;-72
2021/11/02 11:50:25;;;;;;;0.40;0.20;;;;;;;13.13;85.20;99515.25;5076703;28;20449;-72
2021/11/02 11:52:54;;;;;;;0.40;0.20;;;;;;;13.35;84.99;99513.97;5064028;28;20495;-72
2021/11/02 11:55:23;;;;;;;0.77;0.77;;;;;;;13.42;83.65;99516.13;5056277;28;20442;-72
2021/11/02 11:58:08;;;;;;;0.40;0.30;;;;;;;13.43;82.95;99513.03;5056390;28;20426;-72
2021/11/02 12:00:37;;;;;;;0.40;0.30;;;;;;;13.61;82.01;99513.53;5056381;28;20904;-72
2021/11/02 12:03:09;;;;;;;0.40;0.30;;;;;;;13.91;83.01;99508.50;5056398;28;20469;-72
2021/11/02 12:05:43;;;;;;;0.40;0.20;;;;;;;14.38;81.95;99519.38;5056475;28;20426;-72
2021/11/02 12:08:16;;;;;;;0.40;0.30;;;;;;;14.76;80.11;99520.69;5056213;28;20457;-72
2021/11/02 12:10:44;;;;;;;2.87;2.67;;;;;;;15.18;77.98;99527.44;5056461;28;20465;-72
2021/11/02 12:13:12;;;;;;;0.40;0.20;;;;;;;15.70;76.02;99523.44;5056125;28;20482;-72
2021/11/02 12:15:46;;;;;;;0.40;0.30;;;;;;;16.18;73.33;99541.09;5056328;28;20449;-72
2021/11/02 12:18:16;;;;;;;0.40;0.27;;;;;;;16.50;68.64;99529.88;5055821;28;20518;-73
2021/11/02 12:20:44;;;;;;;0.40;0.20;;;;;;;16.71;67.52;99527.47;5056170;28;20474;-73
2021/11/02 12:23:35;;;;;;;0.40;0.30;;;;;;;16.44;68.19;99531.34;5055769;28;20998;-72
2021/11/02 12:26:03;;;;;;;0.40;0.30;;;;;;;16.02;70.42;99524.78;5055489;28;20442;-73
2021/11/02 12:28:33;;;;;;;0.40;0.30;;;;;;;16.28;71.08;99528.75;5055769;28;20939;-72
2021/11/02 12:31:02;;;;;;;0.70;0.70;;;;;;;16.72;71.14;99520.88;5055963;28;20446;-72
2021/11/02 12:33:29;;;;;;;0.40;0.30;;;;;;;17.65;65.27;99522.84;5055878;28;20497;-72
2021/11/02 12:35:58;;;;;;;0.50;0.40;;;;;;;18.18;64.06;99532.78;5055213;28;20446;-72
2021/11/02 12:38:29;;;;;;;0.40;0.30;;;;;;;18.22;62.43;99522.66;5055562;28;20455;-72
2021/11/02 12:40:56;;;;;;;0.40;0.30;;;;;;;18.52;61.47;99518.97;5055788;28;20446;-72
2021/11/02 12:43:25;;;;;;;1.23;1.13;;;;;;;18.88;59.68;99531.00;5055684;28;20512;-73
2021/11/02 12:45:53;;;;;;;0.80;0.80;;;;;;;18.98;58.03;99532.22;5055858;28;20472;-72
2021/11/02 12:48:20;;;;;;;0.40;0.30;;;;;;;18.90;57.79;99529.47;5055650;28;20461;-74
2021/11/02 12:50:51;;;;;;;0.40;0.20;;;;;;;18.66;59.04;99535.53;5055592;28;20435;-71
2021/11/02 12:53:20;;;;;;;0.40;0.30;;;;;;;18.53;60.26;99531.53;5055465;28;20496;-70
2021/11/02 12:55:46;;;;;;;0.40;0.20;;;;;;;18.66;59.67;99530.03;5055462;28;20443;-70
2021/11/02 12:58:19;;;;;;;0.40;0.20;;;;;;;18.59;59.47;99533.53;5055407;28;20438;-70
2021/11/02 13:00:50;;;;;;;0.40;0.27;;;;;;;18.51;60.03;99523.69;5055405;28;20442;-70
2021/11/02 13:03:24;;;;;;;0.40;0.40;;;;;;;18.17;59.86;99533.19;5069329;28;21076;-70
2021/11/02 13:06:02;;;;;;;0.40;0.20;;;;;;;17.72;61.27;99524.88;5073475;28;20866;-70
2021/11/02 13:08:36;;;;;;;0.40;0.20;;;;;;;17.78;62.19;99530.84;5074886;28;20472;-70
2021/11/02 13:11:08;;;;;;;0.40;0.30;;;;;;;18.02;62.14;99545.97;5074829;28;20436;-70
2021/11/02 13:13:57;;;;;;;0.40;0.30;;;;;;;17.94;61.74;99545.09;5075069;28;20481;-70
2021/11/02 13:16:25;;;;;;;0.40;0.30;;;;;;;17.60;62.56;99545.09;5074730;28;20521;-70
2021/11/02 13:18:51;;;;;;;0.50;0.50;;;;;;;16.91;63.09;99547.34;5075084;28;20858;-70
2021/11/02 13:21:24;;;;;;;0.40;0.30;;;;;;;16.34;66.48;99538.25;5075024;28;20437;-70
2021/11/02 13:24:04;;;;;;;0.40;0.20;;;;;;;16.15;67.82;99533.59;5073603;28;20892;-70
2021/11/02 13:26:31;;;;;;;0.40;0.20;;;;;;;15.68;68.24;99540.19;5074200;28;20452;-70
2021/11/02 13:29:10;;;;;;;0.40;0.30;;;;;;;15.38;69.97;99537.22;5074558;28;20953;-70
2021/11/02 13:31:38;;;;;;;0.40;0.30;;;;;;;14.97;71.26;99533.22;5074869;28;20426;-69
2021/11/02 13:34:06;;;;;;;0.40;0.30;;;;;;;14.64;72.75;99535.22;5074547;28;20492;-70
2021/11/02 13:36:33;;;;;;;0.40;0.20;;;;;;;14.46;73.79;99541.38;5074707;28;20441;-70
2021/11/02 13:39:01;;;;;;;0.50;0.43;;;;;;;14.18;74.56;99534.06;5074604;28;20433;-70
2021/11/02 13:41:30;;;;;;;0.40;0.20;;;;;;;14.12;75.50;99535.47;5074607;28;20457;-70
2021/11/02 13:44:00;;;;;;;0.40;0.30;;;;;;;14.10;76.40;99540.47;5074407;28;20498;-70
2021/11/02 13:46:28;;;;;;;0.67;0.67;;;;;;;14.09;76.81;99536.19;5074466;28;20453;-70
2021/11/02 13:48:56;;;;;;;0.50;0.40;;;;;;;14.02;77.79;99546.88;5073044;28;20964;-70
2021/11/02 13:51:24;;;;;;;0.40;0.20;;;;;;;13.93;77.91;99543.53;5074393;28;20455;-70
2021/11/02 13:53:51;;;;;;;0.40;0.30;;;;;;;13.85;78.91;99535.16;5073919;28;20492;-70
2021/11/02 13:56:21;;;;;;;0.40;0.30;;;;;;;13.80;79.82;99532.69;5074277;28;20445;-70
2021/11/02 13:58:50;;;;;;;0.40;0.30;;;;;;;13.81;80.72;99533.50;5074262;28;20437;-70
2021/11/02 14:01:22;;;;;;;0.40;0.40;;;;;;;13.76;79.20;99531.81;5074176;28;20484;-70
2021/11/02 14:03:54;;;;;;;0.40;0.30;;;;;;;13.71;78.49;99539.44;5073822;28;20986;-70
2021/11/02 14:06:23;;;;;;;0.40;0.20;;;;;;;13.67;80.03;99542.06;5073827;28;20433;-70
2021/11/02 14:08:51;;;;;;;0.40;0.30;;;;;;;13.66;79.97;99543.22;5073725;28;20457;-70
2021/11/02 14:11:21;;;;;;;0.40;0.20;;;;;;;13.66;80.59;99542.41;5073632;28;20826;-70
2021/11/02 14:13:49;;;;;;;0.40;0.30;;;;;;;13.62;81.18;99543.09;5073632;28;20520;-70
2021/11/02 14:16:27;;;;;;;0.40;0.20;;;;;;;13.56;80.94;99543.72;5073921;28;20448;-70
2021/11/02 14:18:54;;;;;;;0.40;0.30;;;;;;;13.55;79.80;99539.41;5073883;28;20477;-70
2021/11/02 14:21:48;;;;;;;0.40;0.20;;;;;;;13.57;78.85;99539.84;5073822;28;20449;-70
2021/11/02 14:24:15;;;;;;;0.40;0.30;;;;;;;13.57;79.12;99542.56;5073726;28;20465;-70
2021/11/02 14:26:49;;;;;;;9.33;8.40;;;;;;;13.61;79.00;99538.03;5073709;28;20433;-70
2021/11/02 14:29:18;;;;;;;0.40;0.30;;;;;;;13.61;78.84;99543.47;5073607;28;20445;-70
2021/11/02 14:31:49;;;;;;;0.40;0.30;;;;;;;13.63;79.55;99542.00;5073616;28;20518;-70
2021/11/02 14:34:46;;;;;;;0.40;0.30;;;;;;;13.63;79.30;99543.91;5073482;28;20481;-70
2021/11/02 14:37:16;;;;;;;0.40;0.30;;;;;;;13.60;79.40;99544.59;5067619;28;20472;-70
2021/11/02 14:39:59;;;;;;;0.40;0.30;;;;;;;13.57;79.26;99539.84;5073516;28;20878;-70
2021/11/02 14:42:46;;;;;;;0.40;0.30;;;;;;;13.58;79.80;99538.69;5053457;28;20480;-70
2021/11/02 14:45:14;;;;;;;0.40;0.20;;;;;;;13.55;81.35;99536.69;5053451;28;20426;-70
2021/11/02 14:47:41;;;;;;;0.40;0.20;;;;;;;13.51;82.29;99542.03;5053438;28;20504;-71
2021/11/02 14:50:34;;;;;;;1.23;1.13;;;;;;;13.48;83.58;99537.28;5053514;28;20446;-70
2021/11/02 14:53:10;;;;;;;1.47;1.37;;;;;;;13.40;83.82;99543.66;5053222;28;20481;-71
2021/11/02 14:55:51;;;;;;;0.40;0.30;;;;;;;13.35;82.74;99535.75;5053386;28;20852;-70
2021/11/02 14:58:50;;;;;;;0.40;0.30;;;;;;;13.28;83.33;99535.53;5053479;28;20438;-70
2021/11/02 15:01:20;;;;;;;0.40;0.30;;;;;;;13.22;84.15;99545.03;5053233;28;20427;-70
2021/11/02 15:03:54;;;;;;;0.93;0.93;;;;;;;13.14;84.47;99544.81;5053223;28;20458;-70
2021/11/02 15:06:27;;;;;;;0.40;0.20;;;;;;;13.07;84.36;99546.56;5052878;28;20934;-71
2021/11/02 15:08:54;;;;;;;0.40;0.30;;;;;;;13.00;83.71;99544.41;5052731;28;20512;-70
2021/11/02 15:11:21;;;;;;;0.40;0.30;;;;;;;12.96;82.59;99548.94;5053087;28;20445;-70
2021/11/02 15:13:51;;;;;;;0.40;0.30;;;;;;;12.85;82.63;99542.41;5052981;28;20493;-70
2021/11/02 15:16:18;;;;;;;0.40;0.30;;;;;;;12.77;82.68;99546.81;5053110;28;20453;-71
2021/11/02 15:18:47;;;;;;;0.40;0.27;;;;;;;12.69;82.72;99547.72;5052971;28;20429;-70
2021/11/02 15:21:21;;;;;;;0.40;0.20;;;;;;;12.55;83.31;99542.63;5053334;28;20446;-71
2021/11/02 15:23:49;;;;;;;0.40;0.20;;;;;;;12.49;83.79;99546.72;5053022;28;20469;-70
2021/11/02 15:26:17;;;;;;;0.40;0.30;;;;;;;12.41;84.56;99544.91;5053019;28;20454;-70
2021/11/02 15:28:45;;;;;;;0.40;0.20;;;;;;;12.37;86.30;99555.63;5052621;28;20797;-70
2021/11/02 15:31:15;;;;;;;0.40;0.20;;;;;;;12.31;87.40;99554.28;5052800;28;20457;-70
2021/11/02 15:33:44;;;;;;;0.40;0.30;;;;;;;12.29;88.28;99561.97;5052846;28;20486;-70
2021/11/02 15:36:18;;;;;;;0.60;0.60;;;;;;;12.21;89.51;99557.41;5053000;28;20442;-71
2021/11/02 15:38:44;;;;;;;0.40;0.30;;;;;;;12.15;90.14;99558.78;5052577;28;20430;-70
2021/11/02 15:41:22;;;;;;;0.40;0.30;;;;;;;12.08;90.49;99550.38;5052929;28;20446;-70
2021/11/02 15:43:58;;;;;;;0.40;0.20;;;;;;;12.03;90.54;99550.59;5052888;28;20488;-70
2021/11/02 15:46:29;;;;;;;0.40;0.20;;;;;;;12.03;91.05;99554.09;5052857;28;20433;-70
2021/11/02 15:48:57;;;;;;;0.40;0.20;;;;;;;11.98;90.71;99554.31;5052851;28;20422;-70
2021/11/02 15:51:25;;;;;;;0.40;0.20;;;;;;;11.90;91.27;99552.50;5052760;28;20817;-70
2021/11/02 15:53:52;;;;;;;0.40;0.30;;;;;;;11.87;91.90;99553.19;5052606;28;20486;-70
2021/11/02 15:56:24;;;;;;;0.40;0.30;;;;;;;11.75;92.65;99547.69;5052764;28;20551;-70
2021/11/02 15:58:57;;;;;;;1.37;1.27;;;;;;;11.75;92.24;99547.69;5062331;28;20869;-70
2021/11/02 16:01:34;;;;;;;0.40;0.30;;;;;;;11.66;92.55;99552.41;5072889;28;20433;-70